This is the latest recevied weather packets stored in our database for station/object K5MJM. If no packets are shown the sender has not sent any weather packets the latest 10 day(s).
| Time | Temp. | Humidity | Pressure | Rain* | Wind** | Luminosity | Snow |
|---|---|---|---|---|---|---|---|
| 1777756178 | 23.89° C | 36% | 1020.6 hPa | 0 mm | - | - | - |
| 1777755558 | 23.89° C | 34% | 1020.7 hPa | 0 mm | - | - | - |
| 1777754958 | 22.78° C | 34% | 1020.9 hPa | 0 mm | - | - | - |
| 1777745958 | 22.78° C | 40% | 1022.3 hPa | 0 mm | - | - | - |
| 1777741158 | 21.67° C | 41% | 1022.9 hPa | 0 mm | - | - | - |
| 1777736991 | 19.44° C | 47% | 1022.8 hPa | 0 mm | - | - | - |
| 1777728079 | 13.89° C | 54% | 1022.7 hPa | 0 mm | - | - | - |
| 1777725679 | 11.67° C | 59% | 1022.3 hPa | 0 mm | - | - | - |
| 1777724479 | 10° C | 63% | 1021.8 hPa | 0 mm | - | - | - |
| 1777723909 | 9.44° C | 64% | 1021.6 hPa | 0 mm | - | - | - |
| 1777719678 | 9.44° C | 65% | 1021.4 hPa | 0 mm | - | - | - |
| 1777714278 | 11.11° C | 58% | 1020.9 hPa | 0 mm | - | - | - |
| 1777713699 | 11.11° C | 59% | 1020.8 hPa | 0 mm | - | - | - |
| 1777711878 | 10.56° C | 60% | 1020.5 hPa | 0 mm | - | - | - |
| 1777701678 | 13.33° C | 52% | 1021 hPa | 0 mm | - | - | - |
| 1777698679 | 13.33° C | 52% | 1020.8 hPa | 0 mm | - | - | - |
| 1777692678 | 13.33° C | 48% | 1020.3 hPa | 0 mm | - | - | - |
| 1777691477 | 13.89° C | 46% | 1020.2 hPa | 0 mm | - | - | - |
| 1777687898 | 15.56° C | 42% | 1019.6 hPa | 0 mm | - | - | - |
| 1777683078 | 18.33° C | 33% | 1018.5 hPa | 0 mm | - | - | - |
| 1777677100 | 20° C | 30% | 1018.1 hPa | 0 mm | - | - | - |
| 1777674081 | 20.56° C | 30% | 1017.9 hPa | 0 mm | - | - | - |
| 1777670477 | 21.11° C | 30% | 1018 hPa | 0 mm | - | - | - |
| 1777669879 | 21.67° C | 31% | 1018.3 hPa | 0 mm | - | - | - |
| 1777668077 | 20.56° C | 32% | 1018.5 hPa | 0 mm | - | - | - |
* Rain latest hour (hover to see other rain measurements)
** Current wind speed in m/s (hover to see current wind gust speed)